createdAt,value
2018-04-16T00:00:59.835Z,72.87
2018-04-16T00:03:27.324Z,65.27
2018-04-16T00:05:54.296Z,69.97
2018-04-16T00:08:21.156Z,75.40
2018-04-16T00:10:49.024Z,72.30
2018-04-16T00:13:16.663Z,74.10
2018-04-16T00:15:43.557Z,77.43
2018-04-16T00:18:10.614Z,71.00
2018-04-16T00:20:37.548Z,82.20
2018-04-16T00:23:04.492Z,82.00
2018-04-16T00:25:31.534Z,86.57
2018-04-16T00:27:58.472Z,82.40
2018-04-16T00:30:25.474Z,70.97
2018-04-16T00:32:58.547Z,71.07
2018-04-16T00:35:31.412Z,67.60
2018-04-16T00:38:04.409Z,77.50
2018-04-16T00:40:37.231Z,74.50
2018-04-16T00:43:10.193Z,77.43
2018-04-16T00:45:43.189Z,67.00
2018-04-16T00:48:16.417Z,64.10
2018-04-16T00:50:50.001Z,63.73
2018-04-16T00:53:22.865Z,67.40
2018-04-16T00:55:55.870Z,67.03
2018-04-16T00:58:28.976Z,68.23
2018-04-16T01:01:01.940Z,68.20
2018-04-16T01:03:35.043Z,68.33
2018-04-16T01:06:07.990Z,67.57
2018-04-16T01:08:40.984Z,77.37
2018-04-16T01:11:13.920Z,72.80
2018-04-16T01:13:46.804Z,71.37
2018-04-16T01:16:19.666Z,77.67
2018-04-16T01:18:52.925Z,68.17
2018-04-16T01:21:25.821Z,70.90
2018-04-16T01:23:58.871Z,65.43
2018-04-16T01:26:32.733Z,66.13
2018-04-16T01:29:05.809Z,66.13
2018-04-16T01:31:38.840Z,67.37
2018-04-16T01:34:12.117Z,59.50
2018-04-16T01:36:44.896Z,74.53
2018-04-16T01:39:17.770Z,67.87
2018-04-16T01:41:50.587Z,69.27
2018-04-16T01:44:23.464Z,65.90
2018-04-16T01:46:56.480Z,61.30
2018-04-16T01:49:29.502Z,60.00
2018-04-16T01:52:02.434Z,61.57
2018-04-16T01:54:35.426Z,60.47
2018-04-16T01:57:08.344Z,68.77
2018-04-16T01:59:42.115Z,68.60
2018-04-16T02:02:15.088Z,62.60
2018-04-16T02:04:48.089Z,63.30
2018-04-16T02:07:21.068Z,69.77
2018-04-16T02:09:54.108Z,63.90
2018-04-16T02:12:27.862Z,61.47
2018-04-16T02:15:00.995Z,61.77
2018-04-16T02:17:34.702Z,62.87
2018-04-16T02:23:08.042Z,60.90
2018-04-16T02:25:41.262Z,63.80
2018-04-16T02:28:14.310Z,60.37
2018-04-16T02:30:47.264Z,60.40
2018-04-16T02:33:20.226Z,62.60
2018-04-16T02:35:53.145Z,55.73
2018-04-16T02:41:27.692Z,56.50
2018-04-16T02:44:00.677Z,50.10
2018-04-16T02:46:33.541Z,55.83
2018-04-16T02:49:06.510Z,52.63
2018-04-16T02:51:39.616Z,55.13
2018-04-16T02:54:13.489Z,53.03
2018-04-16T02:56:46.668Z,49.40
2018-04-16T02:59:20.418Z,60.13
2018-04-16T03:01:53.572Z,60.60
2018-04-16T03:04:26.482Z,56.43
2018-04-16T03:06:59.544Z,54.83
2018-04-16T03:09:33.100Z,61.27
2018-04-16T03:12:06.193Z,50.03
2018-04-16T03:14:39.108Z,48.80
2018-04-16T03:17:12.464Z,58.20
2018-04-16T03:19:45.294Z,58.23
2018-04-16T03:22:19.218Z,57.07
2018-04-16T03:24:52.885Z,54.23
2018-04-16T03:27:25.794Z,59.70
2018-04-16T03:29:58.785Z,66.37
2018-04-16T03:32:32.602Z,66.30
2018-04-16T03:35:05.488Z,65.87
2018-04-16T03:37:39.285Z,72.77
2018-04-16T03:40:12.113Z,69.67
2018-04-16T03:42:45.216Z,74.03
2018-04-16T03:45:18.281Z,65.63
2018-04-16T03:47:51.194Z,61.23
2018-04-16T03:50:24.239Z,58.97
2018-04-16T03:52:58.108Z,57.27
2018-04-16T03:55:28.005Z,152.13
2018-04-16T03:57:55.651Z,81.87
2018-04-16T04:00:22.771Z,259.23
2018-04-16T04:02:50.441Z,149.33
2018-04-16T04:05:18.118Z,117.43
2018-04-16T04:07:45.059Z,200.03
2018-04-16T04:10:11.940Z,238.30
2018-04-16T04:12:38.848Z,101.77
2018-04-16T04:15:05.801Z,110.50
2018-04-16T04:17:32.697Z,182.03
2018-04-16T04:19:59.571Z,210.67
2018-04-16T04:22:45.845Z,188.50
2018-04-16T04:25:31.159Z,162.33
2018-04-16T04:28:17.220Z,129.83
2018-04-16T04:30:44.208Z,92.13
2018-04-16T04:33:11.121Z,98.77
2018-04-16T04:35:38.038Z,91.63
2018-04-16T04:38:04.915Z,103.10
2018-04-16T04:40:31.796Z,95.93
2018-04-16T04:42:58.820Z,82.70
2018-04-16T04:45:26.504Z,108.23
2018-04-16T04:47:53.373Z,158.00
2018-04-16T04:50:20.318Z,96.33
2018-04-16T04:52:47.294Z,71.33
2018-04-16T04:55:14.506Z,153.87
2018-04-16T04:57:41.476Z,203.10
2018-04-16T05:00:08.412Z,108.57
2018-04-16T05:02:35.348Z,83.03
2018-04-16T05:05:02.408Z,158.47
2018-04-16T05:07:29.288Z,116.47
2018-04-16T05:09:56.162Z,118.17
2018-04-16T05:12:23.927Z,90.17
2018-04-16T05:14:51.573Z,152.10
2018-04-16T05:17:18.453Z,89.40
2018-04-16T05:19:45.412Z,55.47
2018-04-16T05:22:12.303Z,66.00
2018-04-16T05:24:39.180Z,63.20
2018-04-16T05:27:06.931Z,64.13
2018-04-16T05:29:34.602Z,58.10
2018-04-16T05:32:02.301Z,62.93
2018-04-16T05:34:29.221Z,75.23
2018-04-16T05:36:56.137Z,59.50
2018-04-16T05:39:23.032Z,58.47
2018-04-16T05:41:50.392Z,50.27
2018-04-16T05:44:17.275Z,56.90
2018-04-16T05:46:44.178Z,58.83
2018-04-16T05:49:11.201Z,58.23
2018-04-16T05:51:38.860Z,72.97
2018-04-16T05:54:06.875Z,49.00
2018-04-16T05:56:33.804Z,52.53
2018-04-16T05:59:00.676Z,44.13
2018-04-16T06:01:27.552Z,47.40
2018-04-16T06:03:54.569Z,47.33
2018-04-16T06:06:21.440Z,48.27
2018-04-16T06:08:48.353Z,46.13
2018-04-16T06:11:15.364Z,50.43
2018-04-16T06:13:42.255Z,52.77
2018-04-16T06:16:09.220Z,45.80
2018-04-16T06:18:36.195Z,45.50
2018-04-16T06:21:03.825Z,47.20
2018-04-16T06:23:30.713Z,44.23
2018-04-16T06:25:57.675Z,43.80
2018-04-16T06:28:24.570Z,47.93
2018-04-16T06:30:51.508Z,43.87
2018-04-16T06:33:18.631Z,48.00
2018-04-16T06:35:45.562Z,45.20
2018-04-16T06:38:12.440Z,47.37
2018-04-16T06:40:39.449Z,47.20
2018-04-16T06:43:06.388Z,47.00
2018-04-16T06:45:33.310Z,45.57
2018-04-16T06:48:01.025Z,46.37
2018-04-16T06:50:27.906Z,43.53
2018-04-16T06:52:54.789Z,45.23
2018-04-16T06:55:21.920Z,47.13
2018-04-16T06:57:49.543Z,42.73
2018-04-16T07:00:16.456Z,41.93
2018-04-16T07:02:43.584Z,43.47
2018-04-16T07:05:11.280Z,40.90
2018-04-16T07:07:38.160Z,42.40
2018-04-16T07:10:05.305Z,44.80
2018-04-16T07:12:32.175Z,45.10
2018-04-16T07:14:59.811Z,45.60
2018-04-16T07:17:26.888Z,43.43
2018-04-16T07:19:53.862Z,50.33
2018-04-16T07:22:20.765Z,46.03
2018-04-16T07:24:47.942Z,46.73
2018-04-16T07:27:15.650Z,45.70
2018-04-16T07:29:42.539Z,48.10
2018-04-16T07:32:09.573Z,42.77
2018-04-16T07:34:36.548Z,45.67
2018-04-16T07:37:03.481Z,41.27
2018-04-16T07:39:30.496Z,46.50
2018-04-16T07:41:57.368Z,43.73
2018-04-16T07:44:24.251Z,41.37
2018-04-16T07:46:51.165Z,42.43
2018-04-16T07:49:18.092Z,44.40
2018-04-16T07:51:44.959Z,41.83
2018-04-16T07:54:12.025Z,41.30
2018-04-16T07:56:39.640Z,41.80
2018-04-16T07:59:07.300Z,42.17
2018-04-16T08:01:34.368Z,43.67
2018-04-16T08:04:01.270Z,40.33
2018-04-16T08:06:28.145Z,41.27
2018-04-16T08:08:55.170Z,43.43
2018-04-16T08:11:22.140Z,39.50
2018-04-16T08:13:49.028Z,36.00
2018-04-16T08:16:16.884Z,38.70
2018-04-16T08:18:43.763Z,40.93
2018-04-16T08:21:10.628Z,41.83
2018-04-16T08:23:37.617Z,39.73
2018-04-16T08:26:04.502Z,39.10
2018-04-16T08:28:31.460Z,38.57
2018-04-16T08:30:58.478Z,41.33
2018-04-16T08:33:25.420Z,37.30
2018-04-16T08:35:53.133Z,41.63
2018-04-16T08:38:20.968Z,38.67
2018-04-16T08:40:47.893Z,39.33
2018-04-16T08:43:15.507Z,35.10
2018-04-16T08:45:42.653Z,38.63
2018-04-16T08:48:09.595Z,35.87
2018-04-16T08:50:37.274Z,40.33
2018-04-16T08:53:04.408Z,38.63
2018-04-16T08:55:31.314Z,38.97
2018-04-16T08:57:58.946Z,38.17
2018-04-16T09:00:26.069Z,37.70
2018-04-16T09:02:52.949Z,41.37
2018-04-16T09:05:19.940Z,38.67
2018-04-16T09:07:46.856Z,38.33
2018-04-16T09:10:13.743Z,42.90
2018-04-16T09:12:40.628Z,36.50
2018-04-16T09:15:07.629Z,33.80
2018-04-16T09:17:34.633Z,33.73
2018-04-16T09:20:01.529Z,31.37
2018-04-16T09:22:28.477Z,28.33
2018-04-16T09:24:55.352Z,27.53
2018-04-16T09:27:22.298Z,26.97
2018-04-16T09:29:49.585Z,31.93
2018-04-16T09:32:16.448Z,29.70
2018-04-16T09:34:44.073Z,28.97
2018-04-16T09:37:11.193Z,31.07
2018-04-16T09:39:38.099Z,30.87
2018-04-16T09:42:05.773Z,29.70
2018-04-16T09:44:32.896Z,32.57
2018-04-16T09:46:59.768Z,30.47
2018-04-16T09:49:26.741Z,31.53
2018-04-16T09:51:53.840Z,30.33
2018-04-16T09:54:20.786Z,25.77
2018-04-16T09:56:47.723Z,26.40
2018-04-16T09:59:14.700Z,29.80
2018-04-16T10:01:42.352Z,35.13
2018-04-16T10:04:09.973Z,35.83
2018-04-16T10:06:37.852Z,31.97
2018-04-16T10:09:05.843Z,35.43
2018-04-16T10:11:32.804Z,34.10
2018-04-16T10:14:00.632Z,34.77
2018-04-16T10:16:27.514Z,36.00
2018-04-16T10:18:55.141Z,31.97
2018-04-16T10:21:22.168Z,31.70
2018-04-16T10:23:49.044Z,28.03
2018-04-16T10:26:15.922Z,27.47
2018-04-16T10:28:43.597Z,29.93
2018-04-16T10:31:10.603Z,28.10
2018-04-16T10:33:37.920Z,29.03
2018-04-16T10:36:05.257Z,32.37
2018-04-16T10:38:32.193Z,28.10
2018-04-16T10:40:59.153Z,29.20
2018-04-16T10:43:26.817Z,30.70
2018-04-16T10:45:53.702Z,33.97
2018-04-16T10:48:20.584Z,29.23
2018-04-16T10:50:48.294Z,30.97
2018-04-16T10:53:15.907Z,35.30
2018-04-16T10:55:43.538Z,29.70
2018-04-16T10:58:11.437Z,31.33
2018-04-16T11:00:39.057Z,31.23
2018-04-16T11:03:05.996Z,31.23
2018-04-16T11:05:33.852Z,31.00
2018-04-16T11:08:00.720Z,31.00
2018-04-16T11:10:27.700Z,26.80
2018-04-16T11:12:54.702Z,26.43
2018-04-16T11:15:21.585Z,28.90
2018-04-16T11:17:48.505Z,29.20
2018-04-16T11:20:15.527Z,26.17
2018-04-16T11:22:42.450Z,26.30
2018-04-16T11:25:09.588Z,25.40
2018-04-16T11:27:37.363Z,24.07
2018-04-16T11:30:05.084Z,20.87
2018-04-16T11:32:32.070Z,20.87
2018-04-16T11:34:59.084Z,22.83
2018-04-16T11:37:26.860Z,24.40
2018-04-16T11:39:53.752Z,18.07
2018-04-16T11:42:20.734Z,18.57
2018-04-16T11:44:52.529Z,19.20
2018-04-16T11:47:19.395Z,17.27
2018-04-16T11:49:47.357Z,19.10
2018-04-16T11:52:14.341Z,17.63
2018-04-16T11:54:41.348Z,16.80
2018-04-16T11:57:08.345Z,20.47
2018-04-16T11:59:35.234Z,17.30
2018-04-16T12:02:02.124Z,15.67
2018-04-16T12:04:29.312Z,15.47
2018-04-16T12:06:56.127Z,16.70
2018-04-16T12:09:22.992Z,17.83
2018-04-16T12:11:50.690Z,20.00
2018-04-16T12:14:17.610Z,17.50
2018-04-16T12:16:44.485Z,17.87
2018-04-16T12:19:12.176Z,18.77
2018-04-16T12:21:39.058Z,19.10
2018-04-16T12:24:05.984Z,19.20
2018-04-16T12:26:32.999Z,21.10
2018-04-16T12:29:00.610Z,24.57
2018-04-16T12:31:27.521Z,23.20
2018-04-16T12:33:54.636Z,23.50
2018-04-16T12:36:21.508Z,22.23
2018-04-16T12:38:48.420Z,17.73
2018-04-16T12:41:15.435Z,17.23
2018-04-16T12:43:42.313Z,17.53
2018-04-16T12:46:09.237Z,16.30
2018-04-16T12:48:36.253Z,16.23
2018-04-16T12:51:03.138Z,15.43
2018-04-16T12:53:30.018Z,16.63
2018-04-16T12:55:57.896Z,19.00
2018-04-16T12:58:25.574Z,17.80
2018-04-16T13:00:52.469Z,17.67
2018-04-16T13:03:19.485Z,18.77
2018-04-16T13:05:46.369Z,23.93
2018-04-16T13:08:13.348Z,26.80
2018-04-16T13:10:40.453Z,34.03
2018-04-16T13:13:07.347Z,31.97
2018-04-16T13:15:34.250Z,30.70
2018-04-16T13:18:01.180Z,34.63
2018-04-16T13:20:28.080Z,33.80
2018-04-16T13:22:54.958Z,30.73
2018-04-16T13:25:21.976Z,30.40
2018-04-16T13:27:48.925Z,25.17
2018-04-16T13:30:15.799Z,27.07
2018-04-16T13:32:42.811Z,23.50
2018-04-16T13:35:10.495Z,23.43
2018-04-16T13:37:37.416Z,20.13
2018-04-16T13:40:05.446Z,20.73
2018-04-16T13:42:32.317Z,22.63
2018-04-16T13:44:59.226Z,19.00
2018-04-16T13:47:26.476Z,16.13
2018-04-16T13:49:53.355Z,20.07
2018-04-16T13:52:20.243Z,19.27
2018-04-16T13:54:47.201Z,19.20
2018-04-16T13:57:14.070Z,19.90
2018-04-16T13:59:40.969Z,21.27
2018-04-16T14:02:07.903Z,20.50
2018-04-16T14:04:35.524Z,21.20
2018-04-16T14:07:02.398Z,19.20
2018-04-16T14:09:29.405Z,24.50
2018-04-16T14:11:56.424Z,20.37
2018-04-16T14:14:23.483Z,18.17
2018-04-16T14:16:50.457Z,19.53
2018-04-16T14:19:17.345Z,23.90
2018-04-16T14:21:44.312Z,23.53
2018-04-16T14:24:11.413Z,21.87
2018-04-16T14:26:38.349Z,23.20
2018-04-16T14:29:05.237Z,22.37
2018-04-16T14:31:33.052Z,26.53
2018-04-16T14:34:00.007Z,21.50
2018-04-16T14:36:26.961Z,22.07
2018-04-16T14:38:54.019Z,21.27
2018-04-16T14:41:20.885Z,22.07
2018-04-16T14:43:48.492Z,24.73
2018-04-16T14:46:15.416Z,24.20
2018-04-16T14:48:42.352Z,24.37
2018-04-16T14:51:09.960Z,27.03
2018-04-16T14:53:37.144Z,28.07
2018-04-16T14:56:04.034Z,25.03
2018-04-16T14:58:30.941Z,23.23
2018-04-16T15:00:58.796Z,24.93
2018-04-16T15:03:25.677Z,25.03
2018-04-16T15:05:52.573Z,25.97
2018-04-16T15:08:19.563Z,27.80
2018-04-16T15:10:47.184Z,29.47
2018-04-16T15:13:14.055Z,27.93
2018-04-16T15:15:42.183Z,28.20
2018-04-16T15:18:09.950Z,27.07
2018-04-16T15:20:36.863Z,27.83
2018-04-16T15:23:03.935Z,27.03
2018-04-16T15:25:30.802Z,27.10
2018-04-16T15:27:57.675Z,25.57
2018-04-16T15:30:24.597Z,27.03
2018-04-16T15:32:51.525Z,24.20
2018-04-16T15:35:18.411Z,22.13
2018-04-16T15:37:45.626Z,24.37
2018-04-16T15:40:12.509Z,24.10
2018-04-16T15:42:39.379Z,23.03
2018-04-16T15:45:07.040Z,18.93
2018-04-16T15:47:33.992Z,21.50
2018-04-16T15:50:00.926Z,20.90
2018-04-16T15:52:28.677Z,18.13
2018-04-16T15:54:56.328Z,17.67
2018-04-16T15:57:23.200Z,18.30
2018-04-16T15:59:51.048Z,18.37
2018-04-16T16:02:17.947Z,12.27
2018-04-16T16:04:44.868Z,12.30
2018-04-16T16:07:11.785Z,12.10
2018-04-16T16:09:39.465Z,13.27
2018-04-16T16:12:07.087Z,13.43
2018-04-16T16:14:34.152Z,11.47
2018-04-16T16:17:01.018Z,10.93
2018-04-16T16:19:28.625Z,19.37
2018-04-16T16:21:55.539Z,32.97
2018-04-16T16:24:22.411Z,15.70
2018-04-16T16:26:49.279Z,17.80
2018-04-16T16:29:16.204Z,20.73
2018-04-16T16:31:43.961Z,21.77
2018-04-16T16:34:10.828Z,20.37
2018-04-16T16:36:38.482Z,17.03
2018-04-16T16:39:05.493Z,21.93
2018-04-16T16:41:33.147Z,22.53
2018-04-16T16:44:00.957Z,16.90
2018-04-16T16:46:27.888Z,22.30
2018-04-16T16:48:54.764Z,22.03
2018-04-16T16:51:21.850Z,32.80
2018-04-16T16:53:48.717Z,35.37
2018-04-16T16:56:15.610Z,21.23
2018-04-16T16:58:42.676Z,20.63
2018-04-16T17:01:10.316Z,17.87
2018-04-16T17:03:37.260Z,21.07
2018-04-16T17:06:04.404Z,18.70
2018-04-16T17:08:31.281Z,14.23
2018-04-16T17:10:58.160Z,15.30
2018-04-16T17:13:25.105Z,17.90
2018-04-16T17:15:52.005Z,15.90
2018-04-16T17:18:18.995Z,14.40
2018-04-16T17:20:45.977Z,18.17
2018-04-16T17:23:12.843Z,16.40
2018-04-16T17:25:40.529Z,17.03
2018-04-16T17:28:07.686Z,15.27
2018-04-16T17:30:35.303Z,18.07
2018-04-16T17:33:02.260Z,21.13
2018-04-16T17:35:29.223Z,18.87
2018-04-16T17:37:56.141Z,14.93
2018-04-16T17:40:23.080Z,15.80
2018-04-16T17:42:50.303Z,18.70
2018-04-16T17:45:17.219Z,13.73
2018-04-16T17:47:44.153Z,18.30
2018-04-16T17:50:11.226Z,16.37
2018-04-16T17:52:38.853Z,16.17
2018-04-16T17:55:05.742Z,11.60
2018-04-16T17:57:33.417Z,20.67
2018-04-16T18:00:00.302Z,17.23
2018-04-16T18:02:27.182Z,15.10
2018-04-16T18:04:54.335Z,13.27
2018-04-16T18:07:21.201Z,22.50
2018-04-16T18:09:48.990Z,13.07
2018-04-16T18:12:16.112Z,25.50
2018-04-16T18:14:43.846Z,19.10
2018-04-16T18:17:10.696Z,18.00
2018-04-16T18:19:37.861Z,21.80
2018-04-16T18:22:04.734Z,15.20
2018-04-16T18:24:31.601Z,13.37
2018-04-16T18:26:58.703Z,16.63
2018-04-16T18:29:26.376Z,16.43
2018-04-16T18:31:53.980Z,11.87
2018-04-16T18:34:21.076Z,21.27
2018-04-16T18:36:47.992Z,16.63
2018-04-16T18:39:14.927Z,15.50
2018-04-16T18:41:41.864Z,17.57
2018-04-16T18:44:08.839Z,17.20
2018-04-16T18:46:35.798Z,16.47
2018-04-16T18:49:02.921Z,15.67
2018-04-16T18:51:29.830Z,19.10
2018-04-16T18:53:56.757Z,16.37
2018-04-16T18:56:23.902Z,14.23
2018-04-16T18:58:50.822Z,15.63
2018-04-16T19:01:17.726Z,16.47
2018-04-16T19:03:44.779Z,16.77
2018-04-16T19:06:11.655Z,18.07
2018-04-16T19:08:38.533Z,16.23
2018-04-16T19:11:05.749Z,16.10
2018-04-16T19:13:32.658Z,15.77
2018-04-16T19:15:59.646Z,20.30
2018-04-16T19:18:26.682Z,20.23
2018-04-16T19:20:59.585Z,22.33
2018-04-16T19:23:27.235Z,15.90
2018-04-16T19:25:54.133Z,22.57
2018-04-16T19:28:21.770Z,13.43
2018-04-16T19:30:48.834Z,17.67
2018-04-16T19:33:21.850Z,17.67
2018-04-16T19:35:48.909Z,19.80
2018-04-16T19:38:16.085Z,17.57
2018-04-16T19:40:42.982Z,17.80
2018-04-16T19:43:10.594Z,20.20
2018-04-16T19:45:37.633Z,22.20
2018-04-16T19:48:04.553Z,17.73
2018-04-16T19:50:31.424Z,18.43
2018-04-16T19:52:58.472Z,22.13
2018-04-16T19:55:25.436Z,19.33
2018-04-16T19:57:58.401Z,20.07
2018-04-16T20:00:25.515Z,21.37
2018-04-16T20:02:59.296Z,20.37
2018-04-16T20:05:26.347Z,16.90
2018-04-16T20:07:53.230Z,17.07
2018-04-16T20:10:20.108Z,19.50
2018-04-16T20:12:47.210Z,18.43
2018-04-16T20:15:14.826Z,15.57
2018-04-16T20:17:41.707Z,19.33
2018-04-16T20:20:09.524Z,14.70
2018-04-16T20:22:36.405Z,19.97
2018-04-16T20:25:03.317Z,21.73
2018-04-16T20:27:30.335Z,14.73
2018-04-16T20:29:57.977Z,15.00
2018-04-16T20:32:24.852Z,15.03
2018-04-16T20:34:51.985Z,15.00
2018-04-16T20:37:19.639Z,19.87
2018-04-16T20:39:47.259Z,16.70
2018-04-16T20:42:14.594Z,21.03
2018-04-16T20:44:47.430Z,24.70
2018-04-16T20:47:14.408Z,17.80
2018-04-16T20:49:41.536Z,18.87
2018-04-16T20:52:08.409Z,28.57
2018-04-16T20:54:35.302Z,21.03
2018-04-16T20:57:02.353Z,23.37
2018-04-16T20:59:29.263Z,25.27
2018-04-16T21:01:56.130Z,16.20
2018-04-16T21:04:23.145Z,20.77
2018-04-16T21:06:50.072Z,16.77
2018-04-16T21:09:17.006Z,22.20
2018-04-16T21:11:44.117Z,17.80
2018-04-16T21:14:10.983Z,20.27
2018-04-16T21:16:37.908Z,19.93
2018-04-16T21:19:05.057Z,21.17
2018-04-16T21:21:32.028Z,21.47
2018-04-16T21:23:59.169Z,20.00
2018-04-16T21:26:27.013Z,14.57
2018-04-16T21:28:53.905Z,17.37
2018-04-16T21:31:20.833Z,20.83
2018-04-16T21:33:47.908Z,21.47
2018-04-16T21:36:15.585Z,16.40
2018-04-16T21:38:42.575Z,16.37
2018-04-16T21:41:10.430Z,19.63
2018-04-16T21:43:37.311Z,14.33
2018-04-16T21:46:04.292Z,11.97
2018-04-16T21:48:32.078Z,17.30
2018-04-16T21:50:59.055Z,17.60
2018-04-16T21:53:26.008Z,20.80
2018-04-16T21:55:53.072Z,15.73
2018-04-16T21:58:19.948Z,20.87
2018-04-16T22:00:47.621Z,19.73
2018-04-16T22:03:14.748Z,18.57
2018-04-16T22:05:41.678Z,16.80
2018-04-16T22:08:08.552Z,21.43
2018-04-16T22:10:36.342Z,18.30
2018-04-16T22:13:03.286Z,16.13
2018-04-16T22:15:30.161Z,13.53
2018-04-16T22:17:57.248Z,19.07
2018-04-16T22:20:24.860Z,19.03
2018-04-16T22:22:51.745Z,25.20
2018-04-16T22:25:18.763Z,19.83
2018-04-16T22:27:45.635Z,17.97
2018-04-16T22:30:12.556Z,17.87
2018-04-16T22:32:39.465Z,17.87
2018-04-16T22:35:06.343Z,21.30
2018-04-16T22:37:33.276Z,13.77
2018-04-16T22:40:00.372Z,20.60
2018-04-16T22:42:27.263Z,18.40
2018-04-16T22:44:54.157Z,16.73
2018-04-16T22:47:21.185Z,15.77
2018-04-16T22:49:48.061Z,15.53
2018-04-16T22:52:15.796Z,14.67
2018-04-16T22:54:42.708Z,14.07
2018-04-16T22:57:09.588Z,18.33
2018-04-16T22:59:36.452Z,17.27
2018-04-16T23:02:03.677Z,17.20
2018-04-16T23:04:30.904Z,15.87
2018-04-16T23:06:57.849Z,19.90
2018-04-16T23:09:24.865Z,16.40
2018-04-16T23:11:51.787Z,14.40
2018-04-16T23:14:18.668Z,17.67
2018-04-16T23:16:46.400Z,17.13
2018-04-16T23:19:13.332Z,16.43
2018-04-16T23:21:40.207Z,13.80
2018-04-16T23:24:08.086Z,16.73
2018-04-16T23:26:35.680Z,15.73
2018-04-16T23:29:02.563Z,13.87
2018-04-16T23:31:29.628Z,12.00
2018-04-16T23:33:56.511Z,12.77
2018-04-16T23:36:23.434Z,18.53
2018-04-16T23:38:50.736Z,16.47
2018-04-16T23:41:17.614Z,15.10
2018-04-16T23:43:44.493Z,13.83
2018-04-16T23:46:11.544Z,17.90
2018-04-16T23:48:38.504Z,15.87
2018-04-16T23:51:05.390Z,12.90
2018-04-16T23:53:32.357Z,13.60
2018-04-16T23:55:59.228Z,13.50
2018-04-16T23:58:26.164Z,14.57
